Time;durP1;ratioP1;P1;durP2;ratioP2;P2;SDS_P1;SDS_P2;PMS_P1;PMS_P2;Temp;Humidity;BMP_temperature;BMP_pressure;BME280_temperature;BME280_humidity;BME280_pressure;Samples;Min_cycle;Max_cycle;Signal;HPM_P1;HPM_P2
2022/06/18 01:23:18;;;;;;;;;;;;;;;;;;5323877;23;19982;-92
2022/06/18 01:25:44;;;;;;;;;;;;;;;;;;4922182;29;20442;-93
2022/06/18 01:28:13;;;;;;;;;;;;;;;;;;4922524;29;19925;-91
2022/06/18 01:30:39;;;;;;;;;;;;;;;;;;4922792;29;19918;-91
2022/06/18 01:33:09;;;;;;;;;;;;;;;;;;4923361;29;19926;-92
2022/06/18 01:38:55;;;;;;;;;;;;;;;;;;;;;
2022/06/18 05:01:16;;;;;;;;;;;;;;;;;;5731353;23;19928;-91
2022/06/18 05:14:59;;;;;;;;;;;;;;;;;;5059766;23;19927;-94
2022/06/18 07:27:00;;;;;;;;;;;;;;;;;;6024504;23;19925;-93
2022/06/18 07:29:27;;;;;;;;;;;;;;;;;;4892546;29;19936;-93
2022/06/18 07:32:21;;;;;;;;;;;;;;;;;;4925200;29;19927;-93
2022/06/18 07:34:58;;;;;;;;;;;;;;;;;;4913679;29;19938;-93
2022/06/18 07:37:23;;;;;;;;;;;;;;;;;;4917988;29;19915;-92
2022/06/18 07:39:49;;;;;;;;;;;;;;;;;;4922261;29;20439;-92
2022/06/18 07:42:17;;;;;;;;;;;;;;;;;;4925480;29;20046;-92
2022/06/18 07:44:43;;;;;;;;;;;;;;;;;;4921553;29;19927;-91
2022/06/18 07:47:12;;;;;;;;;;;;;;;;;;4926660;29;19926;-93
2022/06/18 07:49:42;;;;;;;;;;;;;;;;;;4924482;29;19919;-93
2022/06/18 07:52:09;;;;;;;;;;;;;;;;;;4911224;29;19926;-92
2022/06/18 07:54:34;;;;;;;;;;;;;;;;;;4926342;29;19926;-93
2022/06/18 07:57:00;;;;;;;;;;;;;;;;;;4925441;29;20376;-92
2022/06/18 07:59:25;;;;;;;;;;;;;;;;;;4919001;29;19920;-93
2022/06/18 08:01:51;;;;;;;;;;;;;;;;;;4920080;29;19931;-92
2022/06/18 08:04:32;;;;;;;;;;;;;;;;;;4929452;29;19927;-93
2022/06/18 08:06:58;;;;;;;;;;;;;;;;;;4908455;29;20383;-92
2022/06/18 08:09:23;;;;;;;;;;;;;;;;;;4918280;29;19923;-90
2022/06/18 08:11:50;;;;;;;;;;;;;;;;;;4914203;29;20048;-90
2022/06/18 08:14:15;;;;;;;;;;;;;;;;;;4884070;29;19920;-92
2022/06/18 08:16:41;;;;;;;;;;;;;;;;;;4887860;29;19966;-88
2022/06/18 08:19:06;;;;;;;;;;;;;;;;;;4919596;29;19967;-92
2022/06/18 08:21:36;;;;;;;;;;;;;;;;;;4920598;29;20287;-91
2022/06/18 08:24:04;;;;;;;;;;;;;;;;;;4919217;29;19934;-91
2022/06/18 08:26:30;;;;;;;;;;;;;;;;;;4920321;29;19919;-93
2022/06/18 08:28:55;;;;;;;;;;;;;;;;;;4918284;29;19930;-93
2022/06/18 08:31:21;;;;;;;;;;;;;;;;;;4919077;29;19970;-92
2022/06/18 08:33:47;;;;;;;;;;;;;;;;;;4920046;29;19923;-90
2022/06/18 08:36:14;;;;;;;;;;;;;;;;;;4916770;29;19930;-93
2022/06/18 08:38:41;;;;;;;;;;;;;;;;;;4920047;29;19974;-94
2022/06/18 08:41:16;;;;;;;;;;;;;;;;;;4924091;29;19950;-94
2022/06/18 08:43:41;;;;;;;;;;;;;;;;;;4926436;29;19915;-94
2022/06/18 08:46:26;;;;;;;;;;;;;;;;;;4910468;29;19957;-94
2022/06/18 08:49:05;;;;;;;;;;;;;;;;;;4922572;29;19927;-94
2022/06/18 08:51:37;;;;;;;;;;;;;;;;;;4905315;29;19942;-93
2022/06/18 08:54:05;;;;;;;;;;;;;;;;;;4908939;29;19962;-94
2022/06/18 08:56:34;;;;;;;;;;;;;;;;;;4924206;29;19915;-95
2022/06/18 08:59:00;;;;;;;;;;;;;;;;;;4923533;29;19919;-94
2022/06/18 09:02:01;;;;;;;;;;;;;;;;;;4935393;29;19915;-94
2022/06/18 09:04:51;;;;;;;;;;;;;;;;;;4936013;29;19927;-94
2022/06/18 09:07:35;;;;;;;;;;;;;;;;;;4927986;29;19915;-93
2022/06/18 09:10:07;;;;;;;;;;;;;;;;;;4917890;29;19955;-93
2022/06/18 09:12:36;;;;;;;;;;;;;;;;;;4914826;29;19930;-94
2022/06/18 09:15:04;;;;;;;;;;;;;;;;;;4903668;29;19955;-93
2022/06/18 09:17:56;;;;;;;;;;;;;;;;;;4926118;29;19907;-95
2022/06/18 09:20:43;;;;;;;;;;;;;;;;;;4894079;29;19974;-95
2022/06/18 09:23:29;;;;;;;;;;;;;;;;;;4905819;29;19945;-95
2022/06/18 09:25:58;;;;;;;;;;;;;;;;;;4912135;29;19930;-94
2022/06/18 09:28:28;;;;;;;;;;;;;;;;;;4921929;29;19951;-94
2022/06/18 09:31:32;;;;;;;;;;;;;;;;;;4905229;29;19934;-95
2022/06/18 09:40:47;;;;;;;;;;;;;;;;;;4875555;29;19920;-93
2022/06/18 09:46:34;;;;;;;;;;;;;;;;;;4875989;29;19965;-94
2022/06/18 09:52:10;;;;;;;;;;;;;;;;;;4990276;23;19922;-92
2022/06/18 10:01:18;;;;;;;;;;;;;;;;;;5354569;23;19935;-93
2022/06/18 10:10:22;;;;;;;;;;;;;;;;;;4889153;29;19935;-93
2022/06/18 10:12:55;;;;;;;;;;;;;;;;;;4865968;29;19928;-92
2022/06/18 10:15:23;;;;;;;;;;;;;;;;;;4867167;29;20070;-93
2022/06/18 10:17:58;;;;;;;;;;;;;;;;;;4871823;29;20051;-92
2022/06/18 10:20:32;;;;;;;;;;;;;;;;;;4868067;29;20381;-92
2022/06/18 10:23:04;;;;;;;;;;;;;;;;;;4884537;29;19920;-93
2022/06/18 10:25:48;;;;;;;;;;;;;;;;;;4867644;29;20014;-94
2022/06/18 10:28:26;;;;;;;;;;;;;;;;;;4872161;29;19920;-93
2022/06/18 10:30:51;;;;;;;;;;;;;;;;;;4886312;29;19920;-93
2022/06/18 10:33:26;;;;;;;;;;;;;;;;;;4870412;29;19931;-93
2022/06/18 10:35:57;;;;;;;;;;;;;;;;;;4880563;29;19924;-94
2022/06/18 10:38:23;;;;;;;;;;;;;;;;;;4864754;29;19923;-92
2022/06/18 10:41:00;;;;;;;;;;;;;;;;;;4880127;29;19955;-94
2022/06/18 10:43:44;;;;;;;;;;;;;;;;;;4856356;29;20000;-94
2022/06/18 10:46:16;;;;;;;;;;;;;;;;;;4893718;29;19924;-94
2022/06/18 10:48:50;;;;;;;;;;;;;;;;;;4878762;29;19920;-94
2022/06/18 10:51:23;;;;;;;;;;;;;;;;;;4875582;29;19920;-95
2022/06/18 10:53:53;;;;;;;;;;;;;;;;;;4869209;29;19927;-94
2022/06/18 10:56:45;;;;;;;;;;;;;;;;;;4868477;29;20372;-93
2022/06/18 10:59:23;;;;;;;;;;;;;;;;;;4852010;29;19921;-93
2022/06/18 11:01:57;;;;;;;;;;;;;;;;;;4857481;29;19912;-95
2022/06/18 11:08:10;;;;;;;;;;;;;;;;;;4861030;29;19986;-95
2022/06/18 11:11:39;;;;;;;;;;;;;;;;;;;;;
2022/06/18 11:14:09;;;;;;;;;;;;;;;;;;4920579;29;20939;-92
2022/06/18 11:20:08;;;;;;;;;;;;;;;;;;5109859;23;19940;-95
2022/06/18 11:23:26;;;;;;;;;;;;;;;;;;5324234;23;20111;-93
2022/06/18 11:25:57;;;;;;;;;;;;;;;;;;4892538;29;19928;-94
2022/06/18 11:28:42;;;;;;;;;;;;;;;;;;4892307;29;20291;-93
2022/06/18 11:31:09;;;;;;;;;;;;;;;;;;4888280;29;19943;-94
2022/06/18 11:37:46;;;;;;;;;;;;;;;;;;4838668;29;20370;-93
2022/06/18 11:43:46;;;;;;;;;;;;;;;;;;4805581;29;20446;-93
2022/06/18 11:46:34;;;;;;;;;;;;;;;;;;4779534;30;20016;-95
2022/06/18 11:49:20;;;;;;;;;;;;;;;;;;4791179;29;19930;-94
2022/06/18 11:51:58;;;;;;;;;;;;;;;;;;4806167;29;19938;-93
2022/06/18 11:54:24;;;;;;;;;;;;;;;;;;4801839;29;19925;-93
2022/06/18 11:56:52;;;;;;;;;;;;;;;;;;4826895;29;20096;-95
2022/06/18 11:59:34;;;;;;;;;;;;;;;;;;4795003;29;19921;-93
2022/06/18 12:02:03;;;;;;;;;;;;;;;;;;4794119;29;20051;-93
2022/06/18 12:04:51;;;;;;;;;;;;;;;;;;4793585;29;19925;-93
2022/06/18 12:07:29;;;;;;;;;;;;;;;;;;4797674;29;19901;-94
2022/06/18 12:09:56;;;;;;;;;;;;;;;;;;4806544;29;19997;-93
2022/06/18 12:12:44;;;;;;;;;;;;;;;;;;4832643;29;19920;-93
2022/06/18 12:15:25;;;;;;;;;;;;;;;;;;4847143;29;20436;-93
2022/06/18 12:18:02;;;;;;;;;;;;;;;;;;4884073;29;20003;-94
2022/06/18 12:20:27;;;;;;;;;;;;;;;;;;4884906;29;20451;-92
2022/06/18 12:23:02;;;;;;;;;;;;;;;;;;4889390;29;19919;-91
2022/06/18 12:25:46;;;;;;;;;;;;;;;;;;4918270;29;20389;-93
2022/06/18 12:28:32;;;;;;;;;;;;;;;;;;4919300;29;19919;-93
2022/06/18 12:31:01;;;;;;;;;;;;;;;;;;4921254;29;19966;-93
2022/06/18 12:33:33;;;;;;;;;;;;;;;;;;4930670;29;19954;-93
2022/06/18 12:36:17;;;;;;;;;;;;;;;;;;4925883;29;19919;-92
2022/06/18 12:39:02;;;;;;;;;;;;;;;;;;4940249;29;20401;-94
2022/06/18 12:41:38;;;;;;;;;;;;;;;;;;4937967;29;19942;-93
2022/06/18 12:44:19;;;;;;;;;;;;;;;;;;4935536;29;20021;-94
2022/06/18 12:46:48;;;;;;;;;;;;;;;;;;4920068;29;19923;-94
2022/06/18 12:49:33;;;;;;;;;;;;;;;;;;4921381;29;20486;-93
2022/06/18 12:52:06;;;;;;;;;;;;;;;;;;4905001;29;20573;-93
2022/06/18 12:54:37;;;;;;;;;;;;;;;;;;4916308;29;19923;-93
2022/06/18 12:57:09;;;;;;;;;;;;;;;;;;4902713;29;19916;-93
2022/06/18 12:59:43;;;;;;;;;;;;;;;;;;4901264;29;19926;-93
2022/06/18 13:02:13;;;;;;;;;;;;;;;;;;4901209;29;19919;-93
2022/06/18 13:04:48;;;;;;;;;;;;;;;;;;4920258;29;22275;-92
2022/06/18 13:07:16;;;;;;;;;;;;;;;;;;4926985;29;19923;-93
2022/06/18 13:10:03;;;;;;;;;;;;;;;;;;4936290;29;19918;-93
2022/06/18 13:12:44;;;;;;;;;;;;;;;;;;4926155;29;19923;-95
2022/06/18 13:15:15;;;;;;;;;;;;;;;;;;4917308;29;20019;-93
2022/06/18 13:17:49;;;;;;;;;;;;;;;;;;4918148;29;20009;-93
2022/06/18 13:20:34;;;;;;;;;;;;;;;;;;4917228;29;19925;-94
2022/06/18 13:23:00;;;;;;;;;;;;;;;;;;4917594;29;19923;-92
2022/06/18 13:28:16;;;;;;;;;;;;;;;;;;4918246;29;20303;-93
2022/06/18 13:31:00;;;;;;;;;;;;;;;;;;4916559;29;19976;-93
2022/06/18 13:33:31;;;;;;;;;;;;;;;;;;4916563;29;19928;-93
2022/06/18 13:36:04;;;;;;;;;;;;;;;;;;4928630;29;19925;-92
2022/06/18 13:38:30;;;;;;;;;;;;;;;;;;4936318;29;19925;-93
2022/06/18 13:41:19;;;;;;;;;;;;;;;;;;4931699;29;19919;-93
2022/06/18 13:44:04;;;;;;;;;;;;;;;;;;4880762;23;19919;-93
2022/06/18 13:47:27;;;;;;;;;;;;;;;;;;4973519;23;19928;-94
2022/06/18 13:50:45;;;;;;;;;;;;;;;;;;4923344;29;20293;-94
2022/06/18 13:53:04;;;;;;;;;;;;;;;;;;4920693;29;20336;-91
2022/06/18 13:55:34;;;;;;;;;;;;;;;;;;4916348;29;19923;-91
2022/06/18 13:58:02;;;;;;;;;;;;;;;;;;4924692;29;19951;-90
2022/06/18 14:00:29;;;;;;;;;;;;;;;;;;4901344;29;19930;-88
2022/06/18 14:02:55;;;;;;;;;;;;;;;;;;4892984;29;19951;-92
2022/06/18 14:05:21;;;;;;;;;;;;;;;;;;4919606;29;20006;-89
2022/06/18 14:07:49;;;;;;;;;;;;;;;;;;4920654;29;20303;-89
2022/06/18 14:10:16;;;;;;;;;;;;;;;;;;4924924;29;19923;-87
2022/06/18 14:12:46;;;;;;;;;;;;;;;;;;4913658;29;19941;-90
2022/06/18 14:15:18;;;;;;;;;;;;;;;;;;4920601;29;20406;-91
2022/06/18 14:17:46;;;;;;;;;;;;;;;;;;4922086;29;20054;-88
2022/06/18 14:20:23;;;;;;;;;;;;;;;;;;4932804;29;19919;-89
2022/06/18 14:23:01;;;;;;;;;;;;;;;;;;4909985;29;19929;-89
2022/06/18 14:25:27;;;;;;;;;;;;;;;;;;4920296;29;20394;-88
2022/06/18 14:27:53;;;;;;;;;;;;;;;;;;4887344;29;19999;-88
2022/06/18 14:30:21;;;;;;;;;;;;;;;;;;4911154;29;19919;-88
2022/06/18 14:33:00;;;;;;;;;;;;;;;;;;4938484;29;20368;-88
2022/06/18 14:35:28;;;;;;;;;;;;;;;;;;4921957;29;20394;-90
2022/06/18 14:37:54;;;;;;;;;;;;;;;;;;4939414;29;19925;-90
2022/06/18 14:43:32;;;;;;;;;;;;;;;;;;4939121;29;19926;-88
2022/06/18 14:46:14;;;;;;;;;;;;;;;;;;4935165;29;19920;-88
2022/06/18 14:48:46;;;;;;;;;;;;;;;;;;4919649;29;19923;-92
2022/06/18 14:51:22;;;;;;;;;;;;;;;;;;4919931;29;19919;-91
2022/06/18 14:54:06;;;;;;;;;;;;;;;;;;4920249;29;19926;-92
2022/06/18 14:56:42;;;;;;;;;;;;;;;;;;4919128;29;20383;-89
2022/06/18 14:59:24;;;;;;;;;;;;;;;;;;4919864;29;19920;-90
2022/06/18 15:01:59;;;;;;;;;;;;;;;;;;4902390;29;19923;-91
2022/06/18 15:04:42;;;;;;;;;;;;;;;;;;4918295;29;19926;-91
2022/06/18 15:07:08;;;;;;;;;;;;;;;;;;4903447;29;19983;-89
2022/06/18 15:09:35;;;;;;;;;;;;;;;;;;4919691;29;19919;-90
2022/06/18 15:12:03;;;;;;;;;;;;;;;;;;4919554;29;19919;-90
2022/06/18 15:14:30;;;;;;;;;;;;;;;;;;4919567;29;20018;-90
2022/06/18 15:21:57;;;;;;;;;;;;;;;;;;4919478;29;19915;-89
2022/06/18 15:27:11;;;;;;;;;;;;;;;;;;4919571;29;20375;-90
2022/06/18 15:29:41;;;;;;;;;;;;;;;;;;4919159;29;19923;-89
2022/06/18 15:32:14;;;;;;;;;;;;;;;;;;4919550;29;19919;-90
2022/06/18 15:34:40;;;;;;;;;;;;;;;;;;4918133;29;19975;-91
2022/06/18 15:37:20;;;;;;;;;;;;;;;;;;4920270;29;19919;-89
2022/06/18 15:39:57;;;;;;;;;;;;;;;;;;4920168;29;19923;-89
2022/06/18 15:42:42;;;;;;;;;;;;;;;;;;4917489;29;19915;-92
2022/06/18 15:45:16;;;;;;;;;;;;;;;;;;4910499;29;20003;-90
2022/06/18 15:47:41;;;;;;;;;;;;;;;;;;4892193;29;19938;-91
2022/06/18 15:50:07;;;;;;;;;;;;;;;;;;4925077;29;19923;-91
2022/06/18 15:52:35;;;;;;;;;;;;;;;;;;4904951;29;20442;-90
2022/06/18 15:55:04;;;;;;;;;;;;;;;;;;4920080;29;19923;-90
2022/06/18 15:57:32;;;;;;;;;;;;;;;;;;4912563;29;19930;-91
2022/06/18 16:00:04;;;;;;;;;;;;;;;;;;4911840;29;19920;-95
2022/06/18 16:02:30;;;;;;;;;;;;;;;;;;4912059;29;19930;-94
2022/06/18 16:04:58;;;;;;;;;;;;;;;;;;4907204;29;20387;-93
2022/06/18 16:07:24;;;;;;;;;;;;;;;;;;4910795;29;19982;-93
2022/06/18 16:10:00;;;;;;;;;;;;;;;;;;4928099;29;19923;-92
2022/06/18 16:12:30;;;;;;;;;;;;;;;;;;4913961;29;19970;-94
2022/06/18 16:15:03;;;;;;;;;;;;;;;;;;4913524;29;20025;-94
2022/06/18 16:17:34;;;;;;;;;;;;;;;;;;4932312;29;19923;-94
2022/06/18 16:20:01;;;;;;;;;;;;;;;;;;4912165;29;19979;-93
2022/06/18 16:22:34;;;;;;;;;;;;;;;;;;4916027;29;19930;-94
2022/06/18 16:25:17;;;;;;;;;;;;;;;;;;4928741;29;19924;-93
2022/06/18 16:27:52;;;;;;;;;;;;;;;;;;4921521;29;19923;-92
2022/06/18 16:30:17;;;;;;;;;;;;;;;;;;4919508;29;20292;-94
2022/06/18 16:36:12;;;;;;;;;;;;;;;;;;4907144;29;19923;-94
2022/06/18 16:38:39;;;;;;;;;;;;;;;;;;4923909;29;19923;-92
2022/06/18 16:41:25;;;;;;;;;;;;;;;;;;4926857;29;20437;-93
2022/06/18 16:43:50;;;;;;;;;;;;;;;;;;4896231;29;20014;-94
2022/06/18 16:46:26;;;;;;;;;;;;;;;;;;4909266;29;19966;-91
2022/06/18 16:48:58;;;;;;;;;;;;;;;;;;4891670;29;20335;-93
2022/06/18 16:51:44;;;;;;;;;;;;;;;;;;4912874;29;19923;-92
2022/06/18 16:54:27;;;;;;;;;;;;;;;;;;4928512;29;19926;-92
2022/06/18 16:56:53;;;;;;;;;;;;;;;;;;4937009;29;19930;-92
2022/06/18 16:59:18;;;;;;;;;;;;;;;;;;4921787;29;20005;-93
2022/06/18 17:01:44;;;;;;;;;;;;;;;;;;4940416;29;19927;-91
2022/06/18 17:04:09;;;;;;;;;;;;;;;;;;4932863;29;19929;-93
2022/06/18 17:06:36;;;;;;;;;;;;;;;;;;4962057;29;20298;-91
2022/06/18 17:09:02;;;;;;;;;;;;;;;;;;4945053;29;20041;-93
2022/06/18 17:11:27;;;;;;;;;;;;;;;;;;4931838;29;20018;-92
2022/06/18 17:13:54;;;;;;;;;;;;;;;;;;4961208;29;19918;-93
2022/06/18 17:16:20;;;;;;;;;;;;;;;;;;4942092;29;19925;-94
2022/06/18 17:18:45;;;;;;;;;;;;;;;;;;4925304;29;20017;-92
2022/06/18 17:21:13;;;;;;;;;;;;;;;;;;4948973;29;19985;-93
2022/06/18 17:32:01;;;;;;;;;;;;;;;;;;4940320;29;19950;-91
2022/06/18 17:34:27;;;;;;;;;;;;;;;;;;4929235;29;19926;-93
2022/06/18 17:36:53;;;;;;;;;;;;;;;;;;4923706;29;19923;-91
2022/06/18 17:39:18;;;;;;;;;;;;;;;;;;4939516;29;19927;-92
2022/06/18 17:41:44;;;;;;;;;;;;;;;;;;4949741;29;19918;-90
2022/06/18 17:44:13;;;;;;;;;;;;;;;;;;4942577;29;20283;-93
2022/06/18 17:46:39;;;;;;;;;;;;;;;;;;4938317;29;19922;-92
2022/06/18 17:49:04;;;;;;;;;;;;;;;;;;4958011;29;19927;-94
2022/06/18 17:51:30;;;;;;;;;;;;;;;;;;4959170;29;19919;-91
2022/06/18 17:53:56;;;;;;;;;;;;;;;;;;4945065;29;20355;-92
2022/06/18 17:56:23;;;;;;;;;;;;;;;;;;4931626;29;19965;-92
2022/06/18 17:58:48;;;;;;;;;;;;;;;;;;4944429;29;19965;-93
2022/06/18 18:01:23;;;;;;;;;;;;;;;;;;4940154;29;19994;-91
2022/06/18 18:03:48;;;;;;;;;;;;;;;;;;4922622;29;19922;-92
2022/06/18 18:06:14;;;;;;;;;;;;;;;;;;4939883;29;19919;-92
2022/06/18 18:08:39;;;;;;;;;;;;;;;;;;4923072;29;19991;-94
2022/06/18 18:11:05;;;;;;;;;;;;;;;;;;4922617;29;19999;-91
2022/06/18 18:13:31;;;;;;;;;;;;;;;;;;4922811;29;19919;-92
2022/06/18 18:15:56;;;;;;;;;;;;;;;;;;4939558;29;20039;-90
2022/06/18 18:18:22;;;;;;;;;;;;;;;;;;4923118;29;19919;-91
2022/06/18 18:20:47;;;;;;;;;;;;;;;;;;4922897;29;19950;-91
2022/06/18 18:23:13;;;;;;;;;;;;;;;;;;4922277;29;19973;-93
2022/06/18 18:25:45;;;;;;;;;;;;;;;;;;4922620;29;19919;-92
2022/06/18 18:28:11;;;;;;;;;;;;;;;;;;4922715;29;20395;-92
2022/06/18 18:30:36;;;;;;;;;;;;;;;;;;4928688;29;19922;-91
2022/06/18 18:33:03;;;;;;;;;;;;;;;;;;4942077;29;19927;-94
2022/06/18 18:35:28;;;;;;;;;;;;;;;;;;4957513;29;19918;-92
2022/06/18 18:37:54;;;;;;;;;;;;;;;;;;4942039;29;20367;-91
2022/06/18 18:40:19;;;;;;;;;;;;;;;;;;4941591;29;19926;-90
2022/06/18 18:42:45;;;;;;;;;;;;;;;;;;4956821;29;20261;-91
2022/06/18 18:45:11;;;;;;;;;;;;;;;;;;4957090;29;20426;-92
2022/06/18 18:47:36;;;;;;;;;;;;;;;;;;4949989;29;20041;-91
2022/06/18 18:50:02;;;;;;;;;;;;;;;;;;4940859;29;19970;-90
2022/06/18 18:52:28;;;;;;;;;;;;;;;;;;4945512;29;20427;-91
2022/06/18 18:54:53;;;;;;;;;;;;;;;;;;4931518;29;19970;-92
2022/06/18 18:57:19;;;;;;;;;;;;;;;;;;4944062;29;19931;-93
2022/06/18 18:59:44;;;;;;;;;;;;;;;;;;4922161;29;20422;-91
2022/06/18 19:02:11;;;;;;;;;;;;;;;;;;4936372;29;19926;-90
2022/06/18 19:04:36;;;;;;;;;;;;;;;;;;4930692;29;19918;-91
2022/06/18 19:07:03;;;;;;;;;;;;;;;;;;4943915;29;19930;-91
2022/06/18 19:09:29;;;;;;;;;;;;;;;;;;4940386;29;19926;-92
2022/06/18 19:14:39;;;;;;;;;;;;;;;;;;4943084;29;20483;-94
2022/06/18 19:17:06;;;;;;;;;;;;;;;;;;4946320;29;20018;-90
2022/06/18 19:19:32;;;;;;;;;;;;;;;;;;4922933;29;19922;-90
2022/06/18 19:21:58;;;;;;;;;;;;;;;;;;4942177;29;19922;-90
2022/06/18 19:24:24;;;;;;;;;;;;;;;;;;4947151;29;19922;-90
2022/06/18 19:26:50;;;;;;;;;;;;;;;;;;4946055;29;20394;-91
2022/06/18 19:29:15;;;;;;;;;;;;;;;;;;4902969;29;19985;-91
2022/06/18 19:31:43;;;;;;;;;;;;;;;;;;4945251;29;20302;-90
2022/06/18 19:34:10;;;;;;;;;;;;;;;;;;4942515;29;19929;-91
2022/06/18 19:36:41;;;;;;;;;;;;;;;;;;4946759;29;19986;-90
2022/06/18 19:39:08;;;;;;;;;;;;;;;;;;4933505;29;19930;-91
2022/06/18 19:41:33;;;;;;;;;;;;;;;;;;4945270;29;20009;-92
2022/06/18 19:44:00;;;;;;;;;;;;;;;;;;4923338;29;20010;-91
2022/06/18 19:46:27;;;;;;;;;;;;;;;;;;4941263;29;19946;-92
2022/06/18 19:48:53;;;;;;;;;;;;;;;;;;4923112;29;19927;-91
2022/06/18 19:51:18;;;;;;;;;;;;;;;;;;4929219;29;20261;-92
2022/06/18 19:53:45;;;;;;;;;;;;;;;;;;4923831;29;20054;-90
2022/06/18 19:56:12;;;;;;;;;;;;;;;;;;4922341;29;20294;-91
2022/06/18 19:58:38;;;;;;;;;;;;;;;;;;4911123;29;19923;-91
2022/06/18 20:01:06;;;;;;;;;;;;;;;;;;4904173;29;19919;-90
2022/06/18 20:03:31;;;;;;;;;;;;;;;;;;4905823;29;20269;-92
2022/06/18 20:05:58;;;;;;;;;;;;;;;;;;4930346;29;19926;-91
2022/06/18 20:08:25;;;;;;;;;;;;;;;;;;4909855;29;19922;-91
2022/06/18 20:10:50;;;;;;;;;;;;;;;;;;4915946;29;19919;-88
2022/06/18 20:13:16;;;;;;;;;;;;;;;;;;4917903;29;19934;-89
2022/06/18 20:15:41;;;;;;;;;;;;;;;;;;4921083;29;19929;-90
2022/06/18 20:18:08;;;;;;;;;;;;;;;;;;4906152;29;19919;-89
2022/06/18 20:20:38;;;;;;;;;;;;;;;;;;4913887;29;19919;-90
2022/06/18 20:23:04;;;;;;;;;;;;;;;;;;4905294;29;19958;-89
2022/06/18 20:25:29;;;;;;;;;;;;;;;;;;4921051;29;19923;-89
2022/06/18 20:27:55;;;;;;;;;;;;;;;;;;4904889;29;20208;-92
2022/06/18 20:30:20;;;;;;;;;;;;;;;;;;4905359;29;19930;-92
2022/06/18 20:32:47;;;;;;;;;;;;;;;;;;4920590;29;20378;-89
2022/06/18 20:35:16;;;;;;;;;;;;;;;;;;4933152;29;19949;-91
2022/06/18 20:37:41;;;;;;;;;;;;;;;;;;4918299;29;19977;-90
2022/06/18 20:40:07;;;;;;;;;;;;;;;;;;4935190;29;19960;-90
2022/06/18 20:42:32;;;;;;;;;;;;;;;;;;4915712;29;19939;-91
2022/06/18 20:44:57;;;;;;;;;;;;;;;;;;4913067;29;20358;-89
2022/06/18 20:47:23;;;;;;;;;;;;;;;;;;4911812;29;20314;-90
2022/06/18 20:49:48;;;;;;;;;;;;;;;;;;4924685;29;20005;-91
2022/06/18 20:52:14;;;;;;;;;;;;;;;;;;4924806;29;19922;-91
2022/06/18 20:57:25;;;;;;;;;;;;;;;;;;4923298;29;19927;-90
2022/06/18 20:59:52;;;;;;;;;;;;;;;;;;4925290;29;19929;-90
2022/06/18 21:02:22;;;;;;;;;;;;;;;;;;4907387;29;19930;-91
2022/06/18 21:04:49;;;;;;;;;;;;;;;;;;4924747;29;19974;-91
2022/06/18 21:07:14;;;;;;;;;;;;;;;;;;4925023;29;19926;-90
2022/06/18 21:09:40;;;;;;;;;;;;;;;;;;4922127;29;20268;-90
2022/06/18 21:12:06;;;;;;;;;;;;;;;;;;4927062;29;19990;-91
2022/06/18 21:14:32;;;;;;;;;;;;;;;;;;4918281;29;19970;-89
2022/06/18 21:16:58;;;;;;;;;;;;;;;;;;4922707;29;19961;-90
2022/06/18 21:19:26;;;;;;;;;;;;;;;;;;4914687;29;19923;-92
2022/06/18 21:21:54;;;;;;;;;;;;;;;;;;4924671;29;19914;-91
2022/06/18 21:24:27;;;;;;;;;;;;;;;;;;4909000;29;19942;-93
2022/06/18 21:26:52;;;;;;;;;;;;;;;;;;4928426;29;19919;-90
2022/06/18 21:29:19;;;;;;;;;;;;;;;;;;4919964;29;19915;-90
2022/06/18 21:37:15;;;;;;;;;;;;;;;;;;4919695;29;19974;-91
2022/06/18 21:39:41;;;;;;;;;;;;;;;;;;4910618;29;20430;-90
2022/06/18 21:42:07;;;;;;;;;;;;;;;;;;4924583;29;19943;-92
2022/06/18 21:44:33;;;;;;;;;;;;;;;;;;4934355;29;19926;-91
2022/06/18 21:47:07;;;;;;;;;;;;;;;;;;4925211;29;19919;-91
2022/06/18 21:49:35;;;;;;;;;;;;;;;;;;4926212;29;19927;-90
2022/06/18 21:52:01;;;;;;;;;;;;;;;;;;4900695;29;19923;-93
2022/06/18 21:54:27;;;;;;;;;;;;;;;;;;4900706;29;19926;-88
2022/06/18 21:56:59;;;;;;;;;;;;;;;;;;4899628;29;19943;-90
2022/06/18 21:59:26;;;;;;;;;;;;;;;;;;4899960;29;19919;-88
2022/06/18 22:01:51;;;;;;;;;;;;;;;;;;4916714;29;19973;-89
2022/06/18 22:04:23;;;;;;;;;;;;;;;;;;4916613;29;19954;-91
2022/06/18 22:06:49;;;;;;;;;;;;;;;;;;4932920;29;19919;-91
2022/06/18 22:09:14;;;;;;;;;;;;;;;;;;4920033;29;19950;-92
2022/06/18 22:11:40;;;;;;;;;;;;;;;;;;4920048;29;19973;-90
2022/06/18 22:19:35;;;;;;;;;;;;;;;;;;4922355;29;19944;-91
2022/06/18 22:22:02;;;;;;;;;;;;;;;;;;4931865;29;20080;-90
2022/06/18 22:24:27;;;;;;;;;;;;;;;;;;4909736;29;19923;-89
2022/06/18 22:26:53;;;;;;;;;;;;;;;;;;4903082;29;19974;-92
2022/06/18 22:29:18;;;;;;;;;;;;;;;;;;4919997;29;19920;-91
2022/06/18 22:31:45;;;;;;;;;;;;;;;;;;4927686;29;19926;-91
2022/06/18 22:34:11;;;;;;;;;;;;;;;;;;4911626;29;19975;-91
2022/06/18 22:36:43;;;;;;;;;;;;;;;;;;4931046;29;19919;-92
2022/06/18 22:39:09;;;;;;;;;;;;;;;;;;4913829;29;19926;-93
2022/06/18 22:41:37;;;;;;;;;;;;;;;;;;4929780;29;19923;-91
2022/06/18 22:44:04;;;;;;;;;;;;;;;;;;4931188;29;19925;-92
2022/06/18 22:46:33;;;;;;;;;;;;;;;;;;4941284;29;19919;-90
2022/06/18 22:48:59;;;;;;;;;;;;;;;;;;4938748;29;19951;-91
2022/06/18 22:51:29;;;;;;;;;;;;;;;;;;4923544;29;19923;-90
2022/06/18 22:53:59;;;;;;;;;;;;;;;;;;4943155;29;19986;-93
2022/06/18 22:56:26;;;;;;;;;;;;;;;;;;4946705;29;19969;-91
2022/06/18 22:58:55;;;;;;;;;;;;;;;;;;4947752;29;19919;-91
2022/06/18 23:01:21;;;;;;;;;;;;;;;;;;4943747;29;19918;-92
2022/06/18 23:03:48;;;;;;;;;;;;;;;;;;4933509;29;19930;-90
2022/06/18 23:06:15;;;;;;;;;;;;;;;;;;4915529;29;19941;-93
2022/06/18 23:08:42;;;;;;;;;;;;;;;;;;4916934;29;20065;-92
2022/06/18 23:11:46;;;;;;;;;;;;;;;;;;4908252;29;19923;-92
2022/06/18 23:14:01;;;;;;;;;;;;;;;;;;4928684;29;20039;-89
2022/06/18 23:16:27;;;;;;;;;;;;;;;;;;4942466;29;19951;-91
2022/06/18 23:18:53;;;;;;;;;;;;;;;;;;4934121;29;19931;-92
2022/06/18 23:21:23;;;;;;;;;;;;;;;;;;4938824;29;19919;-93
2022/06/18 23:23:49;;;;;;;;;;;;;;;;;;4934411;29;19931;-91
2022/06/18 23:26:14;;;;;;;;;;;;;;;;;;4929743;29;20280;-93
2022/06/18 23:28:43;;;;;;;;;;;;;;;;;;4921742;29;19922;-91
2022/06/18 23:31:08;;;;;;;;;;;;;;;;;;4925637;29;19922;-93
2022/06/18 23:33:35;;;;;;;;;;;;;;;;;;4931131;29;19923;-91
2022/06/18 23:36:01;;;;;;;;;;;;;;;;;;4936959;29;19980;-91
2022/06/18 23:38:26;;;;;;;;;;;;;;;;;;4938853;29;19998;-90
2022/06/18 23:40:52;;;;;;;;;;;;;;;;;;4945580;29;19927;-91
2022/06/18 23:43:18;;;;;;;;;;;;;;;;;;4937752;29;20273;-92
2022/06/18 23:45:47;;;;;;;;;;;;;;;;;;4937338;29;20376;-91
2022/06/18 23:48:14;;;;;;;;;;;;;;;;;;4940053;29;19923;-93
2022/06/18 23:50:41;;;;;;;;;;;;;;;;;;4943067;29;19923;-91
2022/06/18 23:53:08;;;;;;;;;;;;;;;;;;4934136;29;20368;-93
2022/06/18 23:55:36;;;;;;;;;;;;;;;;;;4919569;29;20344;-90
2022/06/18 23:58:03;;;;;;;;;;;;;;;;;;4917730;29;19919;-91
